createdAt,value
2019-05-30T00:00:37.354Z,36.10
2019-05-30T00:03:04.398Z,35.90
2019-05-30T00:05:30.755Z,35.90
2019-05-30T00:10:24.098Z,36.17
2019-05-30T00:12:50.735Z,37.09
2019-05-30T00:15:17.394Z,37.45
2019-05-30T00:17:44.033Z,37.58
2019-05-30T00:20:10.683Z,37.78
2019-05-30T00:22:37.362Z,37.98
2019-05-30T00:25:04.315Z,38.15
2019-05-30T00:27:30.644Z,38.30
2019-05-30T00:29:57.302Z,38.25
2019-05-30T00:32:23.937Z,38.44
2019-05-30T00:34:50.617Z,38.49
2019-05-30T00:37:17.252Z,38.68
2019-05-30T00:39:46.535Z,38.70
2019-05-30T00:42:13.173Z,38.86
2019-05-30T00:44:39.865Z,38.73
2019-05-30T00:47:06.532Z,38.88
2019-05-30T00:49:33.223Z,38.95
2019-05-30T00:52:00.522Z,38.97
2019-05-30T00:54:26.507Z,39.10
2019-05-30T00:56:53.156Z,39.12
2019-05-30T00:59:19.858Z,39.17
2019-05-30T01:01:46.497Z,39.10
2019-05-30T01:04:13.140Z,39.28
2019-05-30T01:06:39.798Z,39.32
2019-05-30T01:09:07.429Z,39.35
2019-05-30T01:11:33.172Z,39.38
2019-05-30T01:14:00.867Z,39.34
2019-05-30T01:16:26.477Z,39.35
2019-05-30T01:18:53.111Z,39.42
2019-05-30T01:21:19.796Z,39.54
2019-05-30T01:23:46.433Z,39.52
2019-05-30T01:26:13.108Z,39.41
2019-05-30T01:28:39.745Z,39.55
2019-05-30T01:31:11.002Z,39.57
2019-05-30T01:33:33.033Z,39.50
2019-05-30T01:35:59.768Z,39.46
2019-05-30T01:38:26.393Z,39.42
2019-05-30T01:40:53.054Z,39.48
2019-05-30T01:43:19.692Z,39.40
2019-05-30T01:45:46.360Z,39.41
2019-05-30T01:48:12.998Z,39.34
2019-05-30T01:50:39.636Z,39.33
2019-05-30T01:53:06.737Z,39.26
2019-05-30T01:55:32.961Z,39.29
2019-05-30T01:58:01.505Z,39.22
2019-05-30T02:00:26.245Z,39.22
2019-05-30T02:02:52.890Z,39.19
2019-05-30T02:07:46.174Z,39.11
2019-05-30T02:10:12.815Z,39.10
2019-05-30T02:12:39.475Z,39.04
2019-05-30T02:15:06.113Z,39.13
2019-05-30T02:17:32.764Z,39.02
2019-05-30T02:19:59.688Z,38.96
2019-05-30T02:22:26.088Z,39.03
2019-05-30T02:24:52.730Z,38.93
2019-05-30T02:27:19.381Z,38.98
2019-05-30T02:29:46.056Z,38.92
2019-05-30T02:32:12.712Z,39.00
2019-05-30T02:34:39.384Z,38.96
2019-05-30T02:37:07.778Z,39.02
2019-05-30T02:39:32.673Z,39.02
2019-05-30T02:42:00.811Z,39.08
2019-05-30T02:44:25.990Z,39.12
2019-05-30T02:46:52.626Z,39.18
2019-05-30T02:49:19.271Z,39.23
2019-05-30T02:51:45.917Z,39.26
2019-05-30T02:54:13.270Z,39.32
2019-05-30T02:56:39.230Z,39.40
2019-05-30T02:59:06.747Z,39.46
2019-05-30T03:01:32.517Z,39.51
2019-05-30T03:06:25.810Z,39.56
2019-05-30T03:08:52.454Z,39.45
2019-05-30T03:11:19.091Z,39.30
2019-05-30T03:13:45.744Z,39.20
2019-05-30T03:16:13.622Z,39.35
2019-05-30T03:18:39.046Z,39.08
2019-05-30T03:21:08.083Z,39.19
2019-05-30T03:23:32.340Z,39.22
2019-05-30T03:25:58.999Z,39.30
2019-05-30T03:28:25.639Z,39.47
2019-05-30T03:30:52.289Z,39.23
2019-05-30T03:33:37.705Z,39.50
2019-05-30T03:35:45.575Z,39.56
2019-05-30T03:38:13.512Z,39.84
2019-05-30T03:40:38.853Z,39.79
2019-05-30T03:43:05.996Z,39.99
2019-05-30T03:45:32.133Z,40.09
2019-05-30T03:47:58.905Z,40.00
2019-05-30T03:52:52.080Z,38.95
2019-05-30T03:55:18.745Z,39.04
2019-05-30T05:23:41.517Z,35.16
2019-05-30T05:26:08.237Z,35.28
2019-05-30T05:28:34.873Z,35.26
2019-05-30T05:31:01.513Z,35.59
2019-05-30T05:33:28.170Z,35.79
2019-05-30T05:35:54.830Z,35.83
2019-05-30T05:38:22.404Z,35.81
2019-05-30T05:40:48.218Z,35.86
2019-05-30T05:43:16.557Z,35.87
2019-05-30T05:45:41.543Z,35.85
2019-05-30T05:50:34.840Z,36.16
2019-05-30T05:53:01.580Z,36.29
2019-05-30T05:55:29.158Z,36.21
2019-05-30T05:57:54.938Z,36.45
2019-05-30T06:00:21.592Z,36.47
2019-05-30T06:02:48.263Z,36.56
2019-05-30T06:05:15.916Z,36.67
2019-05-30T06:07:41.611Z,36.79
2019-05-30T06:10:08.250Z,36.86
2019-05-30T06:12:34.925Z,36.82
2019-05-30T06:15:04.434Z,36.54
2019-05-30T06:17:31.065Z,36.62
2019-05-30T06:19:57.702Z,36.67
2019-05-30T06:22:25.539Z,36.67
2019-05-30T06:24:51.032Z,36.65
2019-05-30T06:27:17.823Z,36.53
2019-05-30T06:29:44.376Z,36.37
2019-05-30T06:32:11.013Z,36.32
2019-05-30T06:34:39.619Z,36.08
2019-05-30T06:37:04.346Z,35.97
2019-05-30T06:39:31.039Z,35.90
2019-05-30T06:41:57.697Z,35.66
2019-05-30T06:44:24.355Z,35.53
2019-05-30T06:46:51.031Z,35.44
2019-05-30T06:49:17.707Z,35.34
2019-05-30T06:51:44.344Z,35.32
2019-05-30T06:54:10.988Z,35.26
2019-05-30T06:56:37.643Z,35.29
2019-05-30T06:59:04.387Z,35.20
2019-05-30T07:01:32.061Z,34.92
2019-05-30T07:03:57.723Z,34.95
2019-05-30T07:06:25.308Z,34.92
2019-05-30T07:08:50.941Z,34.89
2019-05-30T07:11:17.585Z,34.85
2019-05-30T07:13:44.216Z,34.57
2019-05-30T07:16:10.879Z,34.58
2019-05-30T07:18:37.516Z,34.67
2019-05-30T07:23:31.952Z,34.84
2019-05-30T07:25:57.528Z,34.90
2019-05-30T07:28:24.243Z,34.71
2019-05-30T07:30:50.885Z,34.72
2019-05-30T07:35:44.254Z,34.65
2019-05-30T07:38:10.995Z,34.72
2019-05-30T07:40:37.636Z,34.82
2019-05-30T07:43:04.342Z,34.90
2019-05-30T07:45:31.599Z,34.89
2019-05-30T07:47:58.252Z,34.94
2019-05-30T07:50:26.189Z,34.87
2019-05-30T07:52:51.563Z,34.83
2019-05-30T07:57:44.852Z,34.87
2019-05-30T08:00:11.540Z,34.81
2019-05-30T08:02:38.171Z,34.98
2019-05-30T08:05:04.886Z,34.83
2019-05-30T08:07:32.675Z,35.05
2019-05-30T08:09:58.213Z,34.89
2019-05-30T08:12:24.852Z,35.01
2019-05-30T08:14:51.494Z,35.10
2019-05-30T08:17:18.294Z,35.29
2019-05-30T08:19:44.930Z,35.13
2019-05-30T08:22:11.590Z,35.32
2019-05-30T08:24:38.898Z,35.32
2019-05-30T08:27:04.886Z,35.45
2019-05-30T08:29:32.194Z,35.57
2019-05-30T08:31:59.376Z,35.65
2019-05-30T08:34:24.904Z,35.70
2019-05-30T08:36:51.533Z,35.57
2019-05-30T08:39:18.184Z,35.59
2019-05-30T08:41:44.840Z,35.62
2019-05-30T08:44:11.497Z,35.68
2019-05-30T08:46:38.129Z,35.57
2019-05-30T08:49:04.819Z,35.66
2019-05-30T08:51:32.174Z,35.61
2019-05-30T08:53:58.159Z,35.67
2019-05-30T08:56:27.828Z,35.69
2019-05-30T08:58:51.480Z,35.71
2019-05-30T09:01:18.127Z,35.77
2019-05-30T09:03:46.154Z,35.84
2019-05-30T09:06:11.409Z,35.85
2019-05-30T09:08:38.058Z,35.89
2019-05-30T09:11:04.776Z,35.66
2019-05-30T09:13:31.398Z,35.95
2019-05-30T09:18:24.690Z,36.09
2019-05-30T09:20:51.347Z,36.13
2019-05-30T09:23:17.996Z,36.10
2019-05-30T09:25:46.957Z,36.13
2019-05-30T09:28:11.322Z,36.04
2019-05-30T09:30:39.505Z,36.11
2019-05-30T09:33:04.645Z,36.12
2019-05-30T09:35:31.287Z,36.39
2019-05-30T09:37:57.937Z,36.35
2019-05-30T09:40:24.577Z,36.31
2019-05-30T09:42:51.249Z,36.20
2019-05-30T09:45:18.080Z,36.26
2019-05-30T09:47:46.626Z,36.30
2019-05-30T09:50:11.302Z,36.49
2019-05-30T09:52:37.975Z,36.46
2019-05-30T09:55:04.656Z,36.58
2019-05-30T09:57:31.312Z,36.71
2019-05-30T09:59:57.954Z,36.77
2019-05-30T10:02:24.620Z,36.67
2019-05-30T10:04:52.492Z,36.83
2019-05-30T10:07:17.898Z,36.64
2019-05-30T10:09:45.617Z,36.66
2019-05-30T10:12:11.186Z,36.78
2019-05-30T10:14:37.836Z,36.79
2019-05-30T10:17:04.518Z,36.80
2019-05-30T10:19:31.161Z,36.67
2019-05-30T10:21:57.798Z,36.78
2019-05-30T10:24:24.475Z,36.84
2019-05-30T10:26:51.168Z,36.80
2019-05-30T10:29:17.793Z,36.85
2019-05-30T10:31:45.055Z,36.84
2019-05-30T10:34:11.081Z,36.80
2019-05-30T10:36:44.418Z,36.79
2019-05-30T10:39:04.410Z,36.52
2019-05-30T10:41:31.051Z,36.65
2019-05-30T10:43:57.732Z,36.41
2019-05-30T10:46:24.369Z,36.50
2019-05-30T10:48:51.563Z,36.61
2019-05-30T10:51:17.717Z,36.53
2019-05-30T10:53:46.704Z,36.54
2019-05-30T10:56:11.193Z,36.33
2019-05-30T10:58:37.784Z,36.29
2019-05-30T11:01:04.468Z,36.09
2019-05-30T11:03:31.113Z,36.18
2019-05-30T11:05:57.801Z,36.29
2019-05-30T11:08:24.484Z,36.41
2019-05-30T11:10:51.123Z,36.29
2019-05-30T11:13:17.789Z,36.38
2019-05-30T11:15:44.469Z,36.47
2019-05-30T11:18:11.139Z,36.42
2019-05-30T11:20:37.792Z,36.36
2019-05-30T11:23:04.444Z,36.35
2019-05-30T11:25:31.084Z,36.26
2019-05-30T11:27:58.940Z,36.42
2019-05-30T11:30:24.763Z,36.50
2019-05-30T11:32:51.419Z,36.39
2019-05-30T11:35:18.078Z,36.63
2019-05-30T11:37:44.720Z,36.48
2019-05-30T11:40:11.401Z,36.51
2019-05-30T11:42:38.073Z,36.40
2019-05-30T11:45:04.702Z,36.28
2019-05-30T11:47:31.368Z,36.36
2019-05-30T11:49:58.055Z,36.37
2019-05-30T11:52:24.764Z,36.37
2019-05-30T11:54:53.858Z,36.07
2019-05-30T11:57:18.059Z,36.25
2019-05-30T12:02:11.397Z,36.08
2019-05-30T12:04:38.023Z,36.10
2019-05-30T12:07:04.663Z,36.09
2019-05-30T12:09:31.319Z,36.18
2019-05-30T12:11:59.134Z,36.14
2019-05-30T12:14:24.619Z,36.37
2019-05-30T12:16:51.269Z,36.10
2019-05-30T12:19:17.942Z,36.14
2019-05-30T12:21:44.635Z,35.97
2019-05-30T12:24:11.328Z,36.03
2019-05-30T12:26:37.965Z,36.11
2019-05-30T12:29:04.660Z,36.00
2019-05-30T12:31:31.304Z,36.09
2019-05-30T12:33:58.383Z,36.33
2019-05-30T12:36:24.617Z,36.30
2019-05-30T12:38:52.228Z,36.07
2019-05-30T12:41:17.935Z,35.99
2019-05-30T12:43:44.581Z,35.77
2019-05-30T12:46:11.245Z,36.05
2019-05-30T12:48:37.922Z,35.73
2019-05-30T12:51:05.563Z,35.65
2019-05-30T12:53:31.248Z,35.68
2019-05-30T12:55:58.483Z,36.07
2019-05-30T12:58:24.533Z,36.20
2019-05-30T13:00:51.246Z,35.84
2019-05-30T13:03:17.857Z,36.25
2019-05-30T13:05:44.553Z,35.98
2019-05-30T13:08:20.514Z,35.89
2019-05-30T13:13:04.534Z,36.19
2019-05-30T13:15:31.169Z,36.30
2019-05-30T13:17:58.860Z,36.10
2019-05-30T13:20:24.510Z,36.13
2019-05-30T13:22:51.147Z,36.28
2019-05-30T13:25:17.799Z,36.09
2019-05-30T13:27:44.469Z,36.25
2019-05-30T13:30:11.105Z,35.96
2019-05-30T13:32:37.751Z,35.95
2019-05-30T13:35:05.430Z,36.11
2019-05-30T13:37:31.094Z,36.24
2019-05-30T13:39:57.732Z,36.45
2019-05-30T13:42:24.394Z,36.04
2019-05-30T13:47:17.814Z,35.58
2019-05-30T13:49:44.465Z,35.74
2019-05-30T13:52:11.144Z,35.39
2019-05-30T13:54:37.797Z,35.61
2019-05-30T13:57:05.667Z,35.25
2019-05-30T13:59:31.108Z,34.95
2019-05-30T14:01:57.754Z,35.50
2019-05-30T14:04:24.391Z,35.43
2019-05-30T14:06:51.037Z,35.76
2019-05-30T14:09:19.193Z,35.90
2019-05-30T14:11:44.324Z,35.92
2019-05-30T14:14:11.070Z,35.85
2019-05-30T14:16:37.732Z,36.07
2019-05-30T14:21:31.016Z,35.89
2019-05-30T14:23:57.652Z,36.18
2019-05-30T14:26:24.301Z,36.43
2019-05-30T14:28:50.953Z,35.60
2019-05-30T14:31:17.631Z,35.64
2019-05-30T14:33:44.311Z,35.26
2019-05-30T14:36:13.288Z,34.91
2019-05-30T14:38:37.608Z,35.11
2019-05-30T14:41:04.844Z,34.63
2019-05-30T14:43:30.933Z,34.82
2019-05-30T14:45:57.577Z,34.65
2019-05-30T14:48:24.225Z,34.19
2019-05-30T14:50:50.877Z,34.46
2019-05-30T14:53:17.635Z,34.22
2019-05-30T14:55:44.277Z,33.90
2019-05-30T14:58:11.162Z,34.07
2019-05-30T15:00:37.572Z,33.87
2019-05-30T15:03:08.372Z,33.72
2019-05-30T15:05:30.890Z,33.66
2019-05-30T15:07:57.539Z,33.48
2019-05-30T15:10:24.216Z,33.56
2019-05-30T15:12:50.860Z,33.59
2019-05-30T15:15:18.779Z,33.28
2019-05-30T15:17:44.139Z,33.17
2019-05-30T15:20:12.162Z,33.19
2019-05-30T15:22:37.465Z,33.15
2019-05-30T15:25:04.108Z,33.13
2019-05-30T15:27:30.790Z,33.21
2019-05-30T15:29:57.425Z,32.96
2019-05-30T15:32:24.076Z,33.04
2019-05-30T15:34:50.727Z,32.87
2019-05-30T15:37:17.409Z,32.87
2019-05-30T15:39:44.060Z,33.03
2019-05-30T15:42:12.126Z,32.79
2019-05-30T15:44:37.338Z,32.66
2019-05-30T15:47:03.993Z,32.82
2019-05-30T15:49:30.709Z,32.80
2019-05-30T15:51:57.370Z,32.63
2019-05-30T15:54:24.006Z,32.84
2019-05-30T15:56:50.659Z,32.78
2019-05-30T16:01:43.999Z,32.57
2019-05-30T16:04:10.636Z,32.74
2019-05-30T16:06:37.277Z,32.70
2019-05-30T16:09:03.913Z,32.51
2019-05-30T16:11:30.589Z,32.75
2019-05-30T16:13:57.237Z,32.60
2019-05-30T16:16:38.801Z,32.54
2019-05-30T16:18:50.544Z,32.61
2019-05-30T16:21:18.603Z,32.49
2019-05-30T16:23:43.864Z,32.24
2019-05-30T16:26:10.500Z,32.39
2019-05-30T16:28:37.180Z,32.52
2019-05-30T16:31:03.819Z,32.31
2019-05-30T16:33:30.489Z,32.24
2019-05-30T16:35:57.125Z,32.46
2019-05-30T16:38:23.804Z,32.25
2019-05-30T16:40:50.440Z,32.35
2019-05-30T16:45:43.776Z,32.16
2019-05-30T16:48:10.420Z,32.24
2019-05-30T16:50:37.059Z,32.37
2019-05-30T16:53:03.739Z,32.15
2019-05-30T16:55:30.417Z,32.28
2019-05-30T16:57:57.129Z,32.16
2019-05-30T17:00:23.709Z,32.53
2019-05-30T17:02:50.346Z,32.41
2019-05-30T17:05:16.997Z,32.33
2019-05-30T17:07:43.669Z,32.33
2019-05-30T17:10:22.395Z,32.69
2019-05-30T17:12:36.967Z,32.30
2019-05-30T17:15:03.629Z,32.30
2019-05-30T17:17:30.265Z,32.31
2019-05-30T17:19:56.966Z,32.55
2019-05-30T17:22:24.704Z,32.34
2019-05-30T17:24:50.246Z,32.33
2019-05-30T17:27:17.290Z,32.46
2019-05-30T17:29:43.533Z,32.53
2019-05-30T17:32:10.232Z,32.22
2019-05-30T17:34:36.862Z,32.34
2019-05-30T17:37:03.502Z,32.32
2019-05-30T17:39:30.130Z,32.56
2019-05-30T17:41:56.804Z,32.37
2019-05-30T17:44:23.514Z,32.33
2019-05-30T17:46:50.170Z,32.75
2019-05-30T17:49:16.806Z,32.40
2019-05-30T17:51:43.481Z,32.35
2019-05-30T17:54:10.233Z,32.66
2019-05-30T17:56:36.908Z,32.57
2019-05-30T17:59:03.547Z,32.38
2019-05-30T18:01:30.532Z,32.33
2019-05-30T18:03:56.837Z,32.47
2019-05-30T18:06:24.420Z,32.47
2019-05-30T18:08:50.300Z,32.34
2019-05-30T18:11:16.938Z,32.40
2019-05-30T18:13:43.595Z,32.26
2019-05-30T18:16:10.260Z,32.68
2019-05-30T18:18:36.902Z,32.38
2019-05-30T18:21:03.571Z,32.32
2019-05-30T18:25:56.899Z,32.39
2019-05-30T18:28:23.664Z,32.49
2019-05-30T18:30:50.217Z,32.55
2019-05-30T18:33:16.860Z,32.59
2019-05-30T18:35:43.500Z,32.49
2019-05-30T18:38:10.148Z,32.52
2019-05-30T18:40:36.804Z,32.49
2019-05-30T18:43:03.459Z,32.67
2019-05-30T18:45:31.044Z,32.55
2019-05-30T18:47:56.781Z,32.52
2019-05-30T18:50:23.460Z,32.44
2019-05-30T18:52:50.139Z,32.56
2019-05-30T18:55:16.799Z,32.59
2019-05-30T18:57:43.424Z,32.39
2019-05-30T19:00:12.557Z,32.70
2019-05-30T19:02:36.904Z,32.61
2019-05-30T19:05:03.629Z,32.52
2019-05-30T19:07:30.895Z,32.70
2019-05-30T19:09:56.904Z,32.60
2019-05-30T19:12:24.258Z,32.57
2019-05-30T19:14:50.195Z,32.54
2019-05-30T19:17:16.839Z,32.79
2019-05-30T19:22:10.169Z,32.43
2019-05-30T19:24:36.808Z,32.56
2019-05-30T19:27:03.476Z,32.45
2019-05-30T19:29:30.997Z,32.64
2019-05-30T19:31:56.763Z,32.43
2019-05-30T19:34:23.402Z,32.39
2019-05-30T19:36:50.095Z,32.35
2019-05-30T19:39:16.729Z,32.36
2019-05-30T19:41:56.386Z,32.31
2019-05-30T19:44:10.052Z,32.32
2019-05-30T19:46:36.712Z,32.52
2019-05-30T19:49:03.365Z,32.32
2019-05-30T19:51:31.331Z,32.39
2019-05-30T19:53:56.659Z,32.21
2019-05-30T19:56:23.330Z,32.22
2019-05-30T19:58:49.976Z,32.27
2019-05-30T20:01:16.612Z,32.51
2019-05-30T20:03:46.910Z,32.46
2019-05-30T20:06:09.905Z,32.39
2019-05-30T20:08:51.344Z,32.36
2019-05-30T20:11:03.231Z,32.39
2019-05-30T20:13:31.087Z,32.71
2019-05-30T20:18:23.249Z,32.40
2019-05-30T20:20:57.154Z,32.43
2019-05-30T20:23:16.561Z,32.58
2019-05-30T20:25:45.889Z,32.71
2019-05-30T20:28:11.340Z,32.62
2019-05-30T20:30:37.078Z,32.61
2019-05-30T20:33:03.245Z,32.68
2019-05-30T20:35:29.876Z,32.74
2019-05-30T20:37:56.524Z,32.75
2019-05-30T20:40:23.161Z,32.56
2019-05-30T20:42:49.843Z,32.66
2019-05-30T20:45:16.482Z,32.98
2019-05-30T20:47:44.423Z,32.87
2019-05-30T20:52:39.988Z,32.79
2019-05-30T20:55:03.092Z,32.77
2019-05-30T20:57:29.730Z,32.74
2019-05-30T20:59:56.383Z,33.61
2019-05-30T21:02:23.096Z,34.03
2019-05-30T21:04:49.761Z,34.02
2019-05-30T21:07:16.401Z,34.18
2019-05-30T21:09:44.199Z,34.79
2019-05-30T21:12:09.684Z,34.71
2019-05-30T21:14:37.321Z,34.37
2019-05-30T21:17:03.389Z,34.50
2019-05-30T21:19:30.075Z,34.46
2019-05-30T21:21:56.727Z,34.34
2019-05-30T21:26:50.057Z,34.53
2019-05-30T21:29:16.701Z,34.26
2019-05-30T21:31:43.617Z,34.41
2019-05-30T21:34:10.048Z,34.55
2019-05-30T21:36:37.695Z,34.60
2019-05-30T21:39:03.323Z,34.53
2019-05-30T21:41:29.962Z,34.53
2019-05-30T21:43:56.618Z,34.48
2019-05-30T21:48:49.981Z,34.52
2019-05-30T21:51:16.656Z,34.47
2019-05-30T21:53:43.512Z,34.48
2019-05-30T21:56:12.809Z,34.50
2019-05-30T21:58:36.735Z,34.54
2019-05-30T22:01:04.537Z,34.50
2019-05-30T22:03:31.207Z,34.33
2019-05-30T22:05:57.849Z,34.30
2019-05-30T22:08:24.510Z,35.16
2019-05-30T22:10:51.751Z,35.83
2019-05-30T22:13:17.908Z,36.06
2019-05-30T22:15:45.863Z,35.80
2019-05-30T22:18:11.241Z,35.92
2019-05-30T22:23:04.541Z,36.38
2019-05-30T22:25:31.200Z,36.62
2019-05-30T22:27:57.847Z,36.49
2019-05-30T22:30:24.496Z,36.45
2019-05-30T22:32:51.136Z,36.46
2019-05-30T22:35:17.808Z,36.30
2019-05-30T22:37:44.798Z,36.15
2019-05-30T22:40:11.107Z,36.47
2019-05-30T22:42:37.753Z,36.23
2019-05-30T22:45:04.383Z,36.16
2019-05-30T22:47:31.030Z,36.17
2019-05-30T22:49:57.683Z,36.11
2019-05-30T22:52:24.325Z,36.45
2019-05-30T22:54:51.262Z,36.21
2019-05-30T22:57:17.662Z,36.17
2019-05-30T22:59:44.682Z,36.09
2019-05-30T23:02:10.996Z,36.17
2019-05-30T23:04:37.623Z,36.02
2019-05-30T23:07:04.301Z,36.09
2019-05-30T23:09:30.939Z,36.06
2019-05-30T23:11:57.612Z,36.03
2019-05-30T23:14:24.238Z,36.08
2019-05-30T23:16:50.893Z,36.63
2019-05-30T23:19:17.566Z,37.44
2019-05-30T23:21:44.216Z,38.10
2019-05-30T23:24:10.886Z,37.85
2019-05-30T23:26:37.537Z,38.29
2019-05-30T23:29:04.222Z,38.41
2019-05-30T23:31:30.863Z,38.65
2019-05-30T23:33:58.621Z,39.00
2019-05-30T23:36:24.152Z,38.95
2019-05-30T23:38:50.817Z,39.26
2019-05-30T23:41:17.457Z,39.18
2019-05-30T23:43:55.856Z,39.34
2019-05-30T23:46:10.759Z,39.52
2019-05-30T23:48:37.456Z,39.61
2019-05-30T23:51:04.110Z,39.63
2019-05-30T23:53:30.799Z,39.74
2019-05-30T23:55:58.399Z,39.79
2019-05-30T23:58:24.091Z,39.97
